TAF and METAR

METAR for Oseberg A

ENOA 020720Z 30016KT 9999 SCT026TCU 09/04 Q1004 W///S4
Report created 2. jul 09:20
wind 16 knots from WNW (300°) visibility > 10km scattered clouds (~50% cover) at 2600 feet of type towering cumulus Temperature 9° with dewpoint at 4° (Humidity 70.88%) Pressure 1004 hPa

TAF for Oseberg A

AMD ENOA 0207/0306 31015KT 9999 -SHRA FEW020TCU SCT030 TEMPO 0207/0210 SHRA SCT020CB BECMG 0217/0220 25025KT TEMPO 0218/0303 4000 SHRA BKN012CB BECMG 0302/0304 28015KT

between 2. jul 09:00 - 3. jul 08:00

wind 15 knots from NW (310°) visibility > 10km light rain showers some clouds (~25% cover) at 2000 feet of type towering cumulus scattered clouds (~50% cover) at 3000 feet

temporarily between 2. jul 09:00 - 2. jul 12:00

rain showers scattered clouds (~50% cover) at 2000 feet of type cumulonimbus

becoming between 2. jul 19:00 - 2. jul 22:00

wind 25 knots from WSW (250°)

temporarily between 2. jul 20:00 - 3. jul 05:00

visibility 4000 meters rain showers broken clouds (~75% cover) at 1200 feet of type cumulonimbus

becoming between 3. jul 04:00 - 3. jul 06:00

wind 15 knots from W (280°)